Bookmark and Share
Track history (hours):
 

Maria Noelle

More information available from US FCC via Universal Licensing System and Coast Guard Vessel Documentation Center.

Last reported at 2014-Apr-14 09:33 UTC. Time now 2014-Apr-19 00:02 UTC.
Position N 40°06' W 074°02'.

Length 26 m.

Type: Fishing. MMSI: 367313170.

NotesDate/timePositionNaut miles runAvg speedWind from/ knotsBaromVisibWave heightAir tempDewpointWater temp
2014-Apr-14 09:33N 40°06' W 074°02'5 2.4
2014-Apr-14 07:33N 40°06' W 073°56'7 7.0
2014-Apr-14 06:33N 40°06' W 073°47'8 7.3
2014-Apr-14 05:31N 40°06' W 073°37'9 1.3
2014-Apr-13 22:29N 40°06' W 073°25'9 8.9
2014-Apr-13 21:29N 40°06' W 073°36'8 8.9
2014-Apr-13 20:33N 40°06' W 073°47'10 2.3
2014-Apr-13 16:08N 40°06' W 074°00'34 3.8
2014-Apr-13 07:12N 40°04' W 073°15'2 2.6
2014-Apr-13 06:33N 40°04' W 073°18'5 4.7
2014-Apr-13 05:33N 40°06' W 073°23'8 7.8
2014-Apr-13 04:32N 40°06' W 073°34'8 8.5
2014-Apr-13 03:33N 40°06' W 073°45'9 8.7
2014-Apr-13 02:33N 40°06' W 073°56'5 4.6
2014-Apr-13 01:31N 40°06' W 074°02'0 0.0
2014-Apr-13 00:33N 40°06' W 074°02'0 0.0
2014-Apr-12 23:29N 40°06' W 074°02'0 0.0
2014-Apr-12 21:22N 40°06' W 074°02'0 0.0
2014-Apr-12 20:28N 40°06' W 074°02'0 0.0
2014-Apr-12 19:28N 40°06' W 074°02'0 0.0
2014-Apr-12 18:28N 40°06' W 074°02'0 0.0
2014-Apr-12 17:34N 40°06' W 074°02'0 0.0
2014-Apr-12 16:33N 40°06' W 074°02'0 0.0
2014-Apr-12 15:33N 40°06' W 074°02'0 0.0
2014-Apr-12 13:24N 40°06' W 074°02'9 0.2
2014-Apr-10 17:32N 40°06' W 073°50'8 8.2
2014-Apr-10 16:31N 40°06' W 073°39'8 8.1
2014-Apr-10 15:31N 40°06' W 073°29'26 0.5
2014-Apr-08 14:33N 40°06' W 074°02'0 0.0
2014-Apr-07 20:24N 40°06' W 074°02'2 2.8
2014-Apr-07 19:34N 40°06' W 073°59'18 1.7
2014-Apr-07 08:33N 40°06' W 073°35'9 8.6
2014-Apr-07 07:33N 40°06' W 073°46'8 8.4
2014-Apr-07 06:33N 40°06' W 073°57'4 3.7
2014-Apr-07 05:33N 40°06' W 074°02'0 0.0
2014-Apr-07 04:33N 40°06' W 074°02'0 0.0
2014-Apr-07 02:32N 40°06' W 074°02'0 0.0
2014-Apr-07 01:32N 40°06' W 074°02'0 0.0
2014-Apr-07 00:32N 40°06' W 074°02'0 0.0
2014-Apr-05 10:20N 40°06' W 074°02'  

Dump ship's entire track history

sailing weather and tide predictions

Maria Noelle — WDD9564 — position and weather